Time;durP1;ratioP1;P1;durP2;ratioP2;P2;SDS_P1;SDS_P2;PMS_P1;PMS_P2;Temp;Humidity;BMP_temperature;BMP_pressure;BME280_temperature;BME280_humidity;BME280_pressure;Samples;Min_cycle;Max_cycle;Signal;HPM_P1;HPM_P2
2022/09/22 00:01:30;;;;;;;3.15;1.38;;;17.50;78.90;;;;;;5109760;28;20024;-80
2022/09/22 00:03:58;;;;;;;2.78;1.10;;;17.50;78.80;;;;;;5108683;28;20354;-79
2022/09/22 00:06:26;;;;;;;3.45;1.20;;;17.50;78.80;;;;;;5108417;28;20373;-79
2022/09/22 00:08:56;;;;;;;2.88;1.10;;;17.50;78.90;;;;;;5108328;28;20076;-80
2022/09/22 00:11:27;;;;;;;2.92;1.10;;;17.50;78.90;;;;;;5108250;28;20039;-79
2022/09/22 00:13:57;;;;;;;2.05;1.20;;;17.40;78.80;;;;;;5091340;28;20554;-80
2022/09/22 00:16:27;;;;;;;2.33;1.10;;;17.40;78.90;;;;;;5109481;28;20065;-81
2022/09/22 00:18:52;;;;;;;2.15;1.10;;;17.50;79.00;;;;;;5108694;28;20101;-79
2022/09/22 00:21:21;;;;;;;1.95;1.00;;;17.40;78.90;;;;;;5110050;28;20105;-83
2022/09/22 00:23:47;;;;;;;2.15;1.08;;;17.40;78.90;;;;;;5110895;28;20403;-82
2022/09/22 00:26:15;;;;;;;3.08;1.20;;;17.40;78.90;;;;;;5111592;28;20112;-82
2022/09/22 00:28:42;;;;;;;3.08;1.30;;;17.40;78.90;;;;;;5110656;28;20027;-83
2022/09/22 00:31:11;;;;;;;1.52;1.10;;;17.40;78.90;;;;;;5111500;28;20039;-82
2022/09/22 00:33:38;;;;;;;2.50;1.10;;;17.40;79.00;;;;;;5109985;28;20032;-81
2022/09/22 00:36:03;;;;;;;2.83;1.10;;;17.40;78.90;;;;;;5109718;28;20504;-82
2022/09/22 00:38:30;;;;;;;2.33;1.08;;;17.40;78.90;;;;;;5092395;28;20020;-81
2022/09/22 00:40:56;;;;;;;2.55;1.10;;;17.50;79.00;;;;;;5111051;28;20030;-81
2022/09/22 00:43:28;;;;;;;2.20;1.08;;;17.50;79.00;;;;;;5079307;28;20028;-82
2022/09/22 00:46:09;;;;;;;2.97;1.20;;;17.50;78.80;;;;;;5090169;28;20020;-82
2022/09/22 00:48:36;;;;;;;;;;;17.50;78.90;;;;;;5072700;28;20575;-80
2022/09/22 00:51:06;;;;;;;1.85;1.13;;;17.50;78.80;;;;;;5090387;28;19956;-81
2022/09/22 00:53:33;;;;;;;4.07;1.20;;;17.50;78.80;;;;;;5091988;28;20488;-81
2022/09/22 00:56:13;;;;;;;2.85;1.33;;;17.50;78.80;;;;;;5075982;28;20032;-82
2022/09/22 00:58:44;;;;;;;3.33;1.30;;;17.40;78.70;;;;;;5075818;28;20036;-79
2022/09/22 01:01:09;;;;;;;2.80;1.13;;;17.40;78.80;;;;;;5075623;28;20031;-82
2022/09/22 01:03:38;;;;;;;2.55;1.20;;;17.40;78.80;;;;;;5075550;28;20404;-81
2022/09/22 01:06:06;;;;;;;2.45;1.17;;;17.40;78.90;;;;;;5075508;28;20028;-81
2022/09/22 01:08:32;;;;;;;2.55;1.20;;;17.40;78.90;;;;;;5093572;28;20505;-80
2022/09/22 01:10:58;;;;;;;3.13;1.35;;;17.40;79.00;;;;;;5075124;28;20808;-80
2022/09/22 01:13:49;;;;;;;2.72;1.20;;;17.40;79.00;;;;;;5075099;28;20028;-82
2022/09/22 01:16:52;;;;;;;2.88;1.20;;;17.40;79.00;;;;;;5074695;28;20031;-81
2022/09/22 01:19:44;;;;;;;2.33;1.15;;;17.40;79.00;;;;;;5074776;28;20028;-81
2022/09/22 01:22:33;;;;;;;1.92;1.10;;;17.30;78.90;;;;;;5087931;28;20034;-80
2022/09/22 01:25:14;;;;;;;3.33;1.30;;;17.40;79.10;;;;;;5074262;28;20036;-81
2022/09/22 01:27:58;;;;;;;2.15;1.20;;;17.40;79.10;;;;;;5074600;28;20127;-83
2022/09/22 01:30:31;;;;;;;2.08;1.25;;;17.40;79.10;;;;;;5074259;28;20024;-80
2022/09/22 01:33:18;;;;;;;2.38;1.30;;;17.40;79.10;;;;;;5092734;28;20063;-81
2022/09/22 01:36:12;;;;;;;2.03;1.20;;;17.40;79.10;;;;;;5084594;28;20024;-81
2022/09/22 01:38:59;;;;;;;3.25;1.30;;;17.40;79.00;;;;;;5111444;28;20057;-81
2022/09/22 01:42:01;;;;;;;2.33;1.25;;;17.40;79.00;;;;;;5112954;28;20031;-80
2022/09/22 01:44:55;;;;;;;2.35;1.20;;;17.40;79.00;;;;;;5049518;28;20237;-79
2022/09/22 01:47:31;;;;;;;2.33;1.20;;;17.40;78.90;;;;;;5091643;28;20504;-80
2022/09/22 01:50:02;;;;;;;2.90;1.30;;;17.40;78.80;;;;;;5073797;28;20088;-79
2022/09/22 01:52:31;;;;;;;3.13;1.30;;;17.40;78.80;;;;;;5073873;28;20035;-79
2022/09/22 01:55:15;;;;;;;2.35;1.23;;;17.40;78.80;;;;;;5073458;28;20101;-80
2022/09/22 01:57:47;;;;;;;2.45;1.30;;;17.40;78.80;;;;;;5073528;28;20082;-80
2022/09/22 02:00:14;;;;;;;3.22;1.30;;;17.40;78.90;;;;;;5073719;28;20118;-79
2022/09/22 02:03:10;;;;;;;2.83;1.20;;;17.40;79.00;;;;;;5073952;28;20867;-79
2022/09/22 02:05:46;;;;;;;2.88;1.30;;;17.40;79.00;;;;;;5091632;28;20078;-80
2022/09/22 02:08:34;;;;;;;3.40;1.50;;;17.30;79.00;;;;;;5073785;28;20051;-79
2022/09/22 02:11:06;;;;;;;2.63;1.65;;;17.30;79.00;;;;;;5075836;28;20044;-79
2022/09/22 02:13:32;;;;;;;2.95;1.50;;;17.30;79.00;;;;;;5112059;28;20073;-79
2022/09/22 02:16:00;;;;;;;2.90;1.33;;;17.40;79.00;;;;;;5093509;28;20185;-79
2022/09/22 02:18:35;;;;;;;2.75;1.40;;;17.30;79.00;;;;;;5093632;28;20026;-80
2022/09/22 02:21:02;;;;;;;2.45;1.38;;;17.30;79.00;;;;;;5093237;28;20030;-80
2022/09/22 02:23:28;;;;;;;2.42;1.30;;;17.40;79.10;;;;;;5112110;28;20096;-79
2022/09/22 02:25:54;;;;;;;2.05;1.30;;;17.30;79.00;;;;;;5111602;28;20541;-78
2022/09/22 02:28:22;;;;;;;3.25;1.50;;;17.30;79.00;;;;;;5093430;28;20555;-79
2022/09/22 02:30:50;;;;;;;2.78;1.30;;;17.30;79.10;;;;;;5093217;28;20035;-80
2022/09/22 02:33:19;;;;;;;1.55;1.00;;;17.30;79.10;;;;;;5111123;28;20062;-77
2022/09/22 02:35:48;;;;;;;2.20;1.15;;;17.40;79.10;;;;;;5093142;28;20395;-79
2022/09/22 02:38:24;;;;;;;2.88;1.38;;;17.40;79.10;;;;;;5093554;28;20020;-78
2022/09/22 02:41:06;;;;;;;2.20;1.30;;;17.40;79.10;;;;;;5111504;28;20064;-79
2022/09/22 02:43:47;;;;;;;2.35;1.38;;;17.40;79.10;;;;;;5107526;28;20084;-78
2022/09/22 02:46:37;;;;;;;1.98;1.20;;;17.40;79.00;;;;;;5076936;28;20032;-78
2022/09/22 02:49:05;;;;;;;;;;;17.40;78.90;;;;;;5042853;28;20046;-79
2022/09/22 02:51:32;;;;;;;2.65;1.27;;;17.40;78.90;;;;;;5072650;28;19904;-84
2022/09/22 02:53:58;;;;;;;2.92;1.58;;;17.40;79.00;;;;;;5072376;28;20036;-81
2022/09/22 02:56:23;;;;;;;6.60;2.33;;;17.30;78.40;;;;;;5092553;28;20445;-81
2022/09/22 02:58:50;;;;;;;5.72;2.15;;;17.30;77.10;;;;;;5080990;28;20400;-81
2022/09/22 03:01:15;;;;;;;6.28;2.03;;;17.30;76.90;;;;;;5089069;28;20582;-79
2022/09/22 03:03:40;;;;;;;3.35;2.03;;;17.30;77.40;;;;;;5094443;28;20023;-81
2022/09/22 03:06:06;;;;;;;4.95;2.05;;;17.30;77.70;;;;;;5094076;28;20023;-81
2022/09/22 03:08:31;;;;;;;8.23;2.13;;;17.30;77.80;;;;;;5112692;28;20044;-81
2022/09/22 03:10:57;;;;;;;7.35;2.55;;;17.40;78.00;;;;;;5093695;28;20500;-79
2022/09/22 03:13:22;;;;;;;4.82;1.90;;;17.40;78.30;;;;;;5112354;28;20051;-81
2022/09/22 03:15:48;;;;;;;6.80;2.05;;;17.40;78.40;;;;;;5111608;28;20046;-81
2022/09/22 03:18:14;;;;;;;8.02;2.40;;;17.40;78.50;;;;;;5111272;28;20024;-79
2022/09/22 03:20:40;;;;;;;3.78;1.85;;;17.50;79.00;;;;;;5093355;28;20503;-78
2022/09/22 03:23:05;;;;;;;4.95;1.95;;;17.50;79.20;;;;;;5111352;28;20030;-80
2022/09/22 03:25:31;;;;;;;5.15;1.70;;;17.60;79.80;;;;;;5093576;28;20020;-80
2022/09/22 03:27:57;;;;;;;5.90;2.05;;;17.70;80.00;;;;;;5092679;28;20023;-80
2022/09/22 03:30:22;;;;;;;5.10;1.90;;;17.80;80.50;;;;;;5111093;28;20023;-79
2022/09/22 03:32:48;;;;;;;5.20;2.00;;;17.90;80.60;;;;;;5092366;28;20480;-80
2022/09/22 03:35:13;;;;;;;5.85;2.00;;;18.10;81.60;;;;;;5105335;28;20482;-77
2022/09/22 03:37:39;;;;;;;6.63;2.15;;;18.20;81.40;;;;;;5071833;28;20042;-78
2022/09/22 03:40:05;;;;;;;4.78;1.92;;;18.30;82.30;;;;;;5072206;28;20517;-79
2022/09/22 03:42:31;;;;;;;8.15;2.08;;;18.40;82.50;;;;;;5073999;28;20115;-78
2022/09/22 03:44:57;;;;;;;6.72;2.03;;;18.50;82.90;;;;;;5090072;28;20027;-79
2022/09/22 03:47:23;;;;;;;5.47;1.77;;;18.50;82.00;;;;;;5088668;28;20031;-80
2022/09/22 03:49:48;;;;;;;7.55;2.10;;;18.60;82.20;;;;;;5088453;28;20093;-78
2022/09/22 03:52:14;;;;;;;5.80;2.00;;;18.60;82.40;;;;;;5088851;28;20447;-79
2022/09/22 03:54:40;;;;;;;6.78;1.95;;;18.60;82.40;;;;;;5088707;28;20035;-78
2022/09/22 03:57:05;;;;;;;8.07;2.08;;;18.70;82.60;;;;;;5089555;28;20093;-79
2022/09/22 03:59:31;;;;;;;9.25;2.20;;;18.70;82.50;;;;;;5088517;28;20024;-79
2022/09/22 04:20:03;;;;;;;7.45;2.33;;;18.90;81.30;;;;;;5047526;28;20695;-82
2022/09/22 04:22:28;;;;;;;7.63;2.38;;;19.00;81.00;;;;;;5031033;28;20162;-80
2022/09/22 04:24:54;;;;;;;7.78;2.22;;;18.90;80.90;;;;;;5032199;28;20120;-80
2022/09/22 04:27:19;;;;;;;8.52;2.55;;;18.90;81.10;;;;;;5031612;28;20068;-81
2022/09/22 04:29:45;;;;;;;7.72;2.03;;;18.80;81.40;;;;;;5031695;28;20064;-80
2022/09/22 04:32:11;;;;;;;5.25;2.10;;;18.70;81.50;;;;;;5031136;28;20489;-81
2022/09/22 04:34:36;;;;;;;6.32;2.35;;;18.60;81.70;;;;;;5031560;28;20033;-79
2022/09/22 04:37:02;;;;;;;4.93;1.95;;;18.50;81.80;;;;;;5048973;28;20044;-81
2022/09/22 04:39:27;;;;;;;6.97;2.50;;;18.50;81.80;;;;;;5031741;28;20048;-80
2022/09/22 04:41:53;;;;;;;6.93;2.42;;;18.40;82.00;;;;;;5049598;28;20021;-79
2022/09/22 04:44:19;;;;;;;8.23;2.38;;;18.40;82.10;;;;;;5022058;28;20022;-78
2022/09/22 04:46:45;;;;;;;7.90;2.22;;;18.40;82.40;;;;;;5010982;28;20406;-79
2022/09/22 04:49:11;;;;;;;6.97;2.15;;;18.30;82.40;;;;;;5011725;28;20017;-79
2022/09/22 04:55:59;;;;;;;8.32;2.05;;;18.20;82.50;;;;;;5026466;28;20415;-85
2022/09/22 04:58:38;;;;;;;6.00;2.30;;;18.20;82.60;;;;;;4989336;28;20515;-81
2022/09/22 05:01:05;;;;;;;6.47;1.95;;;18.20;82.60;;;;;;4990698;28;20034;-80
2022/09/22 05:03:37;;;;;;;9.25;2.20;;;18.30;82.70;;;;;;4989376;28;20042;-78
2022/09/22 05:06:28;;;;;;;6.90;2.13;;;18.10;82.60;;;;;;5006334;28;20029;-80
2022/09/22 05:09:13;;;;;;;7.70;2.30;;;18.10;82.60;;;;;;5031812;28;20512;-80
2022/09/22 05:11:47;;;;;;;6.32;2.00;;;18.10;82.60;;;;;;5050972;28;20031;-80
2022/09/22 05:14:19;;;;;;;7.05;2.03;;;18.10;82.60;;;;;;5051061;28;20199;-80
2022/09/22 05:16:47;;;;;;;;;;;18.20;82.60;;;;;;5050556;28;20119;-84
2022/09/22 05:19:32;;;;;;;13.98;2.70;;;18.00;81.60;;;;;;5069438;28;20023;-81
2022/09/22 05:22:06;;;;;;;11.00;2.70;;;17.90;81.20;;;;;;5064831;28;20031;-81
2022/09/22 05:27:31;;;;;;;15.35;3.88;;;18.00;78.70;;;;;;5047432;28;20043;-81
2022/09/22 05:30:02;;;;;;;14.57;3.35;;;18.00;78.00;;;;;;5051855;28;20025;-82
2022/09/22 05:32:27;;;;;;;26.13;3.92;;;17.90;77.60;;;;;;5073589;28;20097;-86
2022/09/22 05:34:53;;;;;;;20.02;3.70;;;18.10;78.00;;;;;;5040542;28;20029;-81
2022/09/22 05:37:18;;;;;;;15.02;3.42;;;18.10;78.30;;;;;;5049980;28;20029;-81
2022/09/22 05:39:44;;;;;;;17.00;3.60;;;18.20;78.50;;;;;;5030568;28;20546;-81
2022/09/22 05:42:09;;;;;;;20.92;4.22;;;18.40;78.80;;;;;;5032830;28;20086;-81
2022/09/22 05:44:35;;;;;;;20.90;4.10;;;18.40;79.10;;;;;;5051049;28;20478;-81
2022/09/22 05:47:00;;;;;;;16.52;4.00;;;18.50;80.30;;;;;;5051409;28;20059;-81
2022/09/22 05:49:25;;;;;;;12.00;4.03;;;18.60;80.50;;;;;;5051292;28;20492;-82
2022/09/22 05:51:54;;;;;;;12.43;3.42;;;18.70;80.80;;;;;;5051232;28;20041;-79
2022/09/22 05:54:19;;;;;;;15.93;3.80;;;18.80;81.10;;;;;;5051584;28;20516;-81
2022/09/22 05:56:45;;;;;;;13.00;3.10;;;18.80;81.30;;;;;;5032204;28;20033;-80
2022/09/22 05:59:10;;;;;;;14.55;3.25;;;18.90;81.20;;;;;;5032448;28;20033;-81
2022/09/22 06:01:37;;;;;;;12.93;3.22;;;18.90;82.00;;;;;;5032426;28;20569;-80
2022/09/22 06:04:03;;;;;;;11.38;3.05;;;19.00;82.00;;;;;;5032203;28;20063;-81
2022/09/22 06:06:28;;;;;;;13.10;3.33;;;19.10;82.70;;;;;;5049865;28;20064;-81
2022/09/22 06:08:54;;;;;;;12.98;3.40;;;19.10;82.50;;;;;;5031852;28;20035;-80
2022/09/22 06:11:20;;;;;;;13.00;3.58;;;19.20;82.50;;;;;;5050049;28;20104;-80
2022/09/22 06:13:49;;;;;;;11.57;2.88;;;19.30;82.60;;;;;;5049690;28;20033;-80
2022/09/22 06:16:15;;;;;;;14.80;3.40;;;19.30;82.30;;;;;;5031283;28;20524;-80
2022/09/22 06:18:43;;;;;;;10.93;3.10;;;19.40;82.20;;;;;;5049227;28;20629;-80
2022/09/22 06:21:09;;;;;;;10.48;2.88;;;19.50;82.10;;;;;;5049786;28;20033;-81
2022/09/22 06:23:35;;;;;;;10.23;3.05;;;19.50;81.90;;;;;;5031233;28;20406;-80
2022/09/22 06:26:00;;;;;;;12.73;3.30;;;19.50;81.60;;;;;;5031365;28;20025;-81
2022/09/22 06:28:26;;;;;;;12.32;2.95;;;19.60;81.30;;;;;;5030980;28;20036;-80
2022/09/22 06:30:51;;;;;;;12.18;3.17;;;19.60;81.20;;;;;;5048815;28;20032;-80
2022/09/22 06:33:17;;;;;;;11.30;3.00;;;19.60;81.30;;;;;;5030246;28;20021;-80
2022/09/22 06:35:44;;;;;;;10.30;3.20;;;19.70;80.60;;;;;;5029928;28;20024;-80
2022/09/22 06:38:13;;;;;;;9.23;2.70;;;19.80;80.30;;;;;;5048184;28;20091;-81
2022/09/22 06:40:39;;;;;;;11.13;2.60;;;19.80;80.10;;;;;;5048226;28;20036;-80
2022/09/22 06:43:11;;;;;;;11.32;2.97;;;19.80;79.80;;;;;;5029503;28;20244;-80
2022/09/22 06:45:38;;;;;;;9.55;2.70;;;19.70;79.80;;;;;;5029687;28;20107;-79
2022/09/22 06:48:03;;;;;;;9.20;2.28;;;19.70;80.00;;;;;;5029747;28;20029;-81
2022/09/22 06:50:32;;;;;;;9.00;3.03;;;19.60;80.30;;;;;;5029135;28;20028;-81
2022/09/22 06:53:03;;;;;;;10.80;3.22;;;19.50;80.60;;;;;;5029414;28;20040;-80
2022/09/22 06:55:29;;;;;;;9.30;2.90;;;19.40;80.50;;;;;;5029616;28;20599;-80
2022/09/22 06:57:59;;;;;;;9.45;2.72;;;19.30;81.30;;;;;;5047386;28;20469;-80
2022/09/22 07:00:30;;;;;;;8.68;2.60;;;19.30;81.10;;;;;;5029655;28;20036;-80
2022/09/22 07:03:12;;;;;;;10.10;2.78;;;19.30;81.00;;;;;;5029156;28;20107;-80
2022/09/22 07:05:37;;;;;;;8.70;2.42;;;19.30;80.90;;;;;;5047523;28;20023;-80
2022/09/22 07:08:03;;;;;;;10.73;2.50;;;19.40;80.70;;;;;;5046929;28;20392;-80
2022/09/22 07:10:30;;;;;;;9.70;2.83;;;19.40;80.60;;;;;;5028852;28;20569;-80
2022/09/22 07:12:59;;;;;;;7.43;2.50;;;19.40;80.50;;;;;;5046577;28;20059;-80
2022/09/22 07:15:24;;;;;;;10.20;3.20;;;19.40;80.40;;;;;;5028814;28;20127;-80
2022/09/22 07:17:52;;;;;;;8.82;2.55;;;19.40;80.20;;;;;;5028453;28;20120;-80
2022/09/22 07:20:19;;;;;;;9.18;2.60;;;19.40;80.10;;;;;;5028760;28;20315;-80
2022/09/22 07:22:44;;;;;;;9.13;2.65;;;19.30;80.10;;;;;;5047061;28;20017;-79
2022/09/22 07:25:11;;;;;;;7.82;2.67;;;19.30;80.00;;;;;;5028772;28;20021;-79
2022/09/22 07:27:36;;;;;;;8.52;2.35;;;19.30;80.00;;;;;;5028007;28;20524;-80
2022/09/22 07:30:02;;;;;;;7.70;2.53;;;19.30;80.00;;;;;;5028280;28;20036;-79
2022/09/22 07:32:33;;;;;;;7.78;2.35;;;19.30;79.90;;;;;;5028398;28;20035;-80
2022/09/22 07:34:59;;;;;;;10.40;2.95;;;19.30;79.90;;;;;;5046074;28;20036;-80
2022/09/22 07:37:24;;;;;;;9.85;3.00;;;19.30;79.80;;;;;;5045816;28;20033;-80
2022/09/22 07:39:50;;;;;;;7.68;2.45;;;19.30;79.60;;;;;;5028068;28;20029;-80
2022/09/22 07:42:15;;;;;;;10.25;2.72;;;19.30;79.60;;;;;;5046227;28;20458;-80
2022/09/22 07:50:09;;;;;;;9.73;2.88;;;19.30;79.30;;;;;;5046242;28;20056;-81
2022/09/22 07:52:34;;;;;;;8.07;2.65;;;19.30;79.20;;;;;;5028520;28;20032;-79
2022/09/22 07:55:00;;;;;;;7.88;2.25;;;19.30;79.70;;;;;;5046090;28;20493;-80
2022/09/22 07:57:25;;;;;;;8.45;2.63;;;19.40;79.10;;;;;;5045722;28;20029;-80
2022/09/22 07:59:51;;;;;;;8.48;2.83;;;19.40;78.90;;;;;;5045706;28;20024;-80
2022/09/22 08:02:16;;;;;;;8.57;2.38;;;19.40;78.70;;;;;;5027869;28;20033;-81
2022/09/22 08:04:42;;;;;;;8.50;2.22;;;19.50;78.60;;;;;;5032935;28;20025;-80
2022/09/22 08:07:08;;;;;;;10.07;2.70;;;19.50;78.40;;;;;;5032959;28;20064;-81
2022/09/22 08:09:34;;;;;;;6.32;2.03;;;19.50;78.20;;;;;;5033139;28;20462;-81
2022/09/22 08:12:01;;;;;;;8.95;3.00;;;19.60;78.10;;;;;;5056039;28;20028;-81
2022/09/22 08:14:26;;;;;;;6.88;2.55;;;19.60;77.90;;;;;;5050438;28;20099;-80
2022/09/22 08:16:52;;;;;;;9.23;2.30;;;19.70;77.80;;;;;;5068811;28;20080;-80
2022/09/22 08:19:18;;;;;;;9.13;2.75;;;19.70;77.70;;;;;;5051744;28;20020;-80
2022/09/22 08:21:46;;;;;;;7.95;2.60;;;19.70;77.60;;;;;;5069188;28;20055;-81
2022/09/22 08:24:13;;;;;;;11.57;2.72;;;19.70;77.50;;;;;;5050471;28;20464;-80
2022/09/22 08:26:42;;;;;;;9.15;2.58;;;19.70;77.60;;;;;;5049933;28;20127;-81
2022/09/22 08:29:09;;;;;;;7.07;2.30;;;19.70;77.50;;;;;;5068650;28;20059;-82
2022/09/22 08:31:35;;;;;;;8.07;2.45;;;19.70;77.50;;;;;;5049777;28;20032;-81
2022/09/22 08:34:03;;;;;;;6.22;2.40;;;19.70;77.50;;;;;;5068089;28;20028;-79
2022/09/22 08:36:29;;;;;;;8.23;2.47;;;19.70;77.50;;;;;;5049900;28;20028;-80
2022/09/22 08:38:58;;;;;;;9.18;2.40;;;19.70;77.40;;;;;;5067691;28;20029;-79
2022/09/22 08:41:26;;;;;;;6.65;2.20;;;19.70;77.50;;;;;;5067728;28;20028;-80
2022/09/22 08:44:00;;;;;;;7.47;2.50;;;19.70;77.30;;;;;;5048919;28;20062;-80
2022/09/22 08:46:28;;;;;;;6.95;2.55;;;19.70;77.30;;;;;;5067024;28;20463;-81
2022/09/22 08:52:25;;;;;;;5.30;1.90;;;19.70;77.10;;;;;;5061548;28;20090;-81
2022/09/22 08:54:51;;;;;;;6.28;2.40;;;19.70;77.00;;;;;;5066517;28;20021;-79
2022/09/22 08:57:59;;;;;;;6.35;2.10;;;19.80;77.00;;;;;;5048073;28;20560;-81
2022/09/22 09:00:34;;;;;;;3.83;1.70;;;19.80;76.90;;;;;;5048589;28;20025;-80
2022/09/22 09:03:27;;;;;;;6.70;2.05;;;19.80;76.80;;;;;;5047568;28;20021;-81
2022/09/22 09:06:11;;;;;;;6.78;2.10;;;19.80;76.80;;;;;;5047922;28;20520;-80
2022/09/22 09:08:44;;;;;;;8.90;2.20;;;19.80;76.90;;;;;;5047870;28;20111;-79
2022/09/22 09:11:27;;;;;;;4.88;1.95;;;19.80;76.90;;;;;;5047553;28;20025;-81
2022/09/22 09:14:20;;;;;;;6.10;2.22;;;19.70;77.00;;;;;;5047262;28;20404;-80
2022/09/22 09:17:19;;;;;;;5.05;2.08;;;19.80;77.20;;;;;;5050465;28;20715;-80
2022/09/22 09:19:57;;;;;;;6.32;2.22;;;19.70;77.20;;;;;;5051092;28;20744;-79
2022/09/22 09:22:36;;;;;;;5.90;2.08;;;19.70;77.20;;;;;;5051247;28;20063;-80
2022/09/22 09:25:37;;;;;;;7.03;2.00;;;19.70;77.30;;;;;;5051454;28;20020;-80
2022/09/22 09:28:23;;;;;;;6.40;2.22;;;19.70;77.20;;;;;;5050629;28;20054;-80
2022/09/22 09:30:52;;;;;;;4.80;1.92;;;19.70;77.20;;;;;;5050695;28;20037;-80
2022/09/22 09:33:39;;;;;;;5.40;2.08;;;19.70;77.80;;;;;;5050684;28;20111;-80
2022/09/22 09:36:13;;;;;;;4.45;1.80;;;19.70;77.30;;;;;;5068583;28;20028;-80
2022/09/22 09:38:46;;;;;;;5.22;2.08;;;19.70;77.10;;;;;;5068804;28;20027;-78
2022/09/22 09:41:18;;;;;;;7.20;2.28;;;19.70;77.30;;;;;;5068594;28;20024;-79
2022/09/22 09:43:44;;;;;;;5.22;2.28;;;19.70;77.10;;;;;;5068521;28;20073;-80
2022/09/22 09:46:47;;;;;;;6.10;2.13;;;19.70;77.50;;;;;;5049843;28;20167;-79
2022/09/22 09:49:20;;;;;;;5.95;1.77;;;19.70;76.90;;;;;;5050202;28;20028;-80
2022/09/22 09:51:55;;;;;;;5.18;1.98;;;19.80;76.80;;;;;;5049842;28;20043;-80
2022/09/22 09:54:22;;;;;;;6.20;1.98;;;19.80;76.70;;;;;;5050106;28;20039;-79
2022/09/22 09:57:16;;;;;;;4.78;2.00;;;19.80;76.70;;;;;;5049622;28;20119;-79
2022/09/22 10:03:05;;;;;;;4.35;1.85;;;19.70;76.80;;;;;;5068270;28;20064;-80
2022/09/22 10:05:36;;;;;;;6.90;2.42;;;19.70;76.90;;;;;;5068135;28;20040;-79
2022/09/22 10:08:22;;;;;;;4.75;1.75;;;19.70;76.90;;;;;;5067881;28;20646;-80
2022/09/22 10:10:48;;;;;;;4.30;1.92;;;19.70;76.90;;;;;;5049421;28;20071;-80
2022/09/22 10:13:14;;;;;;;4.05;1.70;;;19.70;76.90;;;;;;5067866;28;20052;-80
2022/09/22 10:15:41;;;;;;;4.95;1.98;;;19.70;76.90;;;;;;5049696;28;20334;-78
2022/09/22 10:18:39;;;;;;;5.38;2.05;;;19.70;76.90;;;;;;5049452;28;20029;-79
2022/09/22 10:21:17;;;;;;;5.65;1.98;;;19.60;77.00;;;;;;5049720;28;20024;-79
2022/09/22 10:23:55;;;;;;;5.20;1.83;;;19.70;77.00;;;;;;5049274;28;20033;-79
2022/09/22 10:26:29;;;;;;;4.28;1.70;;;19.70;77.00;;;;;;5048476;28;20029;-80
2022/09/22 10:29:19;;;;;;;4.85;1.70;;;19.60;77.00;;;;;;5049393;28;20028;-80
2022/09/22 10:32:10;;;;;;;4.07;1.77;;;19.70;77.00;;;;;;5067324;28;20048;-80
2022/09/22 10:34:48;;;;;;;4.35;1.83;;;19.60;77.10;;;;;;5051817;28;20140;-81
2022/09/22 10:37:17;;;;;;;4.55;1.70;;;19.70;76.90;;;;;;5052720;28;20522;-81
2022/09/22 10:39:44;;;;;;;3.50;1.60;;;19.60;76.90;;;;;;5052520;28;20055;-81
2022/09/22 10:42:39;;;;;;;5.28;1.90;;;19.70;76.70;;;;;;5070251;28;20024;-80
2022/09/22 10:45:18;;;;;;;4.82;1.60;;;19.70;76.70;;;;;;5069739;28;20417;-80
2022/09/22 10:48:23;;;;;;;3.72;1.60;;;19.70;76.60;;;;;;5051435;28;20047;-81
2022/09/22 10:51:11;;;;;;;4.18;1.70;;;19.70;76.50;;;;;;5054315;28;20072;-80
2022/09/22 10:53:57;;;;;;;5.22;1.67;;;19.70;76.50;;;;;;5051411;28;20036;-80
2022/09/22 10:56:34;;;;;;;4.20;1.65;;;19.70;76.70;;;;;;5051664;28;20054;-80
2022/09/22 10:59:20;;;;;;;4.72;1.95;;;19.60;77.50;;;;;;5068301;28;20040;-80
2022/09/22 11:01:46;;;;;;;3.85;1.73;;;19.50;77.10;;;;;;5068687;28;20032;-81
2022/09/22 11:04:35;;;;;;;3.80;1.52;;;19.50;77.20;;;;;;5050361;28;20382;-80
2022/09/22 11:13:26;;;;;;;3.47;1.52;;;19.30;77.60;;;;;;5068235;28;20031;-80
2022/09/22 11:16:09;;;;;;;2.92;1.50;;;19.30;77.80;;;;;;5049395;28;20028;-81
2022/09/22 11:19:07;;;;;;;3.72;1.50;;;19.20;77.90;;;;;;5049833;28;20404;-79
2022/09/22 11:22:04;;;;;;;3.22;1.58;;;19.20;78.00;;;;;;5024668;28;20031;-81
2022/09/22 11:24:45;;;;;;;3.45;1.30;;;19.20;78.10;;;;;;5049705;28;20111;-80
2022/09/22 11:27:35;;;;;;;3.92;1.50;;;19.20;77.90;;;;;;5049371;28;20024;-80
2022/09/22 11:30:28;;;;;;;3.05;1.30;;;19.30;78.00;;;;;;5067338;28;20032;-80
2022/09/22 11:33:13;;;;;;;3.70;1.40;;;19.30;77.80;;;;;;5063441;28;20346;-78
2022/09/22 11:36:13;;;;;;;3.25;1.52;;;19.30;77.80;;;;;;5049030;28;20028;-79
2022/09/22 11:38:57;;;;;;;2.53;1.30;;;19.30;77.60;;;;;;5033476;28;20043;-81
2022/09/22 11:41:56;;;;;;;4.13;1.58;;;19.40;77.50;;;;;;5048104;28;20028;-80
2022/09/22 11:44:35;;;;;;;3.00;1.42;;;19.30;77.40;;;;;;5048293;28;20516;-80
2022/09/22 11:47:29;;;;;;;3.85;1.55;;;19.30;77.60;;;;;;5066357;28;20028;-80
2022/09/22 11:50:22;;;;;;;3.42;1.60;;;19.20;77.70;;;;;;5066281;28;20028;-80
2022/09/22 11:53:26;;;;;;;2.63;1.35;;;19.10;78.00;;;;;;5047991;28;20033;-81
2022/09/22 11:56:01;;;;;;;2.70;1.38;;;19.10;78.20;;;;;;5018552;28;20493;-80
2022/09/22 11:58:30;;;;;;;2.63;1.30;;;19.10;78.30;;;;;;5048042;28;20032;-79
2022/09/22 12:01:03;;;;;;;3.17;1.40;;;19.00;78.50;;;;;;5066086;28;20095;-81
2022/09/22 12:03:36;;;;;;;3.65;1.42;;;19.00;78.60;;;;;;5048115;28;20020;-80
2022/09/22 12:06:06;;;;;;;4.22;1.48;;;19.00;78.60;;;;;;5047438;28;20036;-80
2022/09/22 12:08:38;;;;;;;3.50;1.45;;;19.00;78.60;;;;;;5047868;28;20043;-80
2022/09/22 12:11:06;;;;;;;2.33;1.20;;;19.00;78.50;;;;;;5047704;28;20027;-79
2022/09/22 12:13:33;;;;;;;3.33;1.42;;;19.00;78.50;;;;;;5047814;28;20109;-80
2022/09/22 12:16:24;;;;;;;3.25;1.38;;;19.00;78.50;;;;;;5047111;28;20532;-81
2022/09/22 12:18:59;;;;;;;3.80;1.50;;;19.00;78.40;;;;;;5047733;28;20035;-80
2022/09/22 12:22:09;;;;;;;3.05;1.42;;;19.10;78.40;;;;;;5047149;28;20045;-80
2022/09/22 12:24:35;;;;;;;4.50;1.40;;;19.10;78.30;;;;;;5065567;28;20390;-79
2022/09/22 12:27:18;;;;;;;4.10;1.45;;;19.10;78.10;;;;;;5065399;28;20054;-80
2022/09/22 12:29:45;;;;;;;4.35;1.55;;;19.10;78.10;;;;;;5064984;28;20043;-80
2022/09/22 12:32:23;;;;;;;2.72;1.20;;;19.10;78.00;;;;;;5047692;28;20477;-81
2022/09/22 12:34:50;;;;;;;3.72;1.40;;;19.10;78.00;;;;;;5065393;28;20043;-80
2022/09/22 12:37:31;;;;;;;3.92;1.65;;;19.10;78.10;;;;;;5046898;28;20298;-79
2022/09/22 12:40:04;;;;;;;;;;;19.10;78.30;;;;;;5047531;28;20021;-79
2022/09/22 12:42:36;;;;;;;2.65;1.30;;;19.10;78.40;;;;;;5047196;28;19908;-80
2022/09/22 12:45:18;;;;;;;2.95;1.30;;;19.00;78.30;;;;;;5065918;28;20501;-81
2022/09/22 12:47:50;;;;;;;4.38;1.35;;;19.00;78.40;;;;;;5050173;28;20028;-79
2022/09/22 12:50:21;;;;;;;3.47;1.13;;;19.00;76.60;;;;;;5053079;28;20021;-81
2022/09/22 12:52:49;;;;;;;3.33;1.33;;;18.80;73.90;;;;;;5053682;28;20063;-81
2022/09/22 12:55:27;;;;;;;4.38;1.27;;;18.80;72.50;;;;;;5054307;28;20051;-81
2022/09/22 12:57:54;;;;;;;3.08;1.30;;;18.80;73.40;;;;;;5054315;28;20123;-81
2022/09/22 13:00:35;;;;;;;2.90;1.27;;;18.80;74.20;;;;;;5056010;28;20056;-81
2022/09/22 13:03:23;;;;;;;2.63;1.20;;;18.80;74.70;;;;;;5073754;28;20029;-81
2022/09/22 13:05:49;;;;;;;2.60;1.00;;;18.80;75.20;;;;;;5055525;28;20025;-82
2022/09/22 13:08:44;;;;;;;2.55;1.20;;;18.80;75.20;;;;;;5059099;28;20073;-83
2022/09/22 13:11:11;;;;;;;3.50;1.52;;;18.80;75.60;;;;;;5078775;28;20040;-82
2022/09/22 13:13:41;;;;;;;3.17;1.40;;;18.80;75.90;;;;;;5060113;28;20028;-81
2022/09/22 13:16:13;;;;;;;2.55;1.00;;;18.80;76.20;;;;;;5058476;28;20471;-82
2022/09/22 13:18:42;;;;;;;;;;;18.80;76.10;;;;;;5058942;28;20024;-81
2022/09/22 13:21:11;;;;;;;3.95;1.30;;;18.80;76.20;;;;;;5075532;28;19951;-81
2022/09/22 13:23:58;;;;;;;2.83;1.30;;;18.80;76.20;;;;;;5076261;28;20017;-81
2022/09/22 13:26:28;;;;;;;3.88;1.20;;;18.80;76.20;;;;;;5058568;28;20089;-82
2022/09/22 13:29:16;;;;;;;1.95;1.10;;;18.80;76.20;;;;;;5075553;28;20039;-81
2022/09/22 13:31:44;;;;;;;2.58;1.20;;;18.90;76.90;;;;;;5056481;28;20139;-81
2022/09/22 13:34:34;;;;;;;2.63;1.05;;;18.80;76.60;;;;;;5057259;28;20397;-82
2022/09/22 13:37:08;;;;;;;2.88;1.20;;;18.80;76.90;;;;;;5056626;28;20090;-81
2022/09/22 13:39:38;;;;;;;2.35;1.20;;;18.70;77.00;;;;;;5056447;28;20071;-83
2022/09/22 13:42:08;;;;;;;2.13;1.00;;;18.70;77.20;;;;;;5073351;28;20055;-82
2022/09/22 13:44:38;;;;;;;3.20;1.20;;;18.70;77.20;;;;;;5054908;28;20031;-80
2022/09/22 13:47:11;;;;;;;2.08;1.10;;;18.70;77.40;;;;;;5072812;28;20025;-81
2022/09/22 13:49:41;;;;;;;2.25;1.13;;;18.70;77.40;;;;;;5055234;28;20028;-82
2022/09/22 13:52:20;;;;;;;2.58;1.20;;;18.70;77.50;;;;;;5055184;28;20059;-81
2022/09/22 13:55:02;;;;;;;1.90;1.00;;;18.70;77.60;;;;;;5055274;28;20028;-81
2022/09/22 13:57:32;;;;;;;3.08;1.10;;;18.70;77.70;;;;;;5054731;28;20029;-81
2022/09/22 14:00:04;;;;;;;2.47;1.13;;;18.60;77.60;;;;;;5054915;28;20028;-82
2022/09/22 14:02:30;;;;;;;2.45;1.17;;;18.60;77.80;;;;;;5073733;28;20039;-82